Time;durP1;ratioP1;P1;durP2;ratioP2;P2;SDS_P1;SDS_P2;PMS_P1;PMS_P2;Temp;Humidity;BMP_temperature;BMP_pressure;BME280_temperature;BME280_humidity;BME280_pressure;Samples;Min_cycle;Max_cycle;Signal;HPM_P1;HPM_P2
2023/08/17 00:00:56;;;;;;;5.50;3.00;;;15.40;99.90;;;;;;5072530;28;20051;-75
2023/08/17 00:03:21;;;;;;;5.47;3.03;;;15.40;99.90;;;;;;5072625;28;20508;-75
2023/08/17 00:05:47;;;;;;;7.72;3.42;;;15.30;99.90;;;;;;5077920;28;20476;-75
2023/08/17 00:08:13;;;;;;;6.07;2.67;;;15.30;99.90;;;;;;5091267;28;20040;-75
2023/08/17 00:10:42;;;;;;;5.97;2.78;;;15.30;99.90;;;;;;5074091;28;20052;-75
2023/08/17 00:13:07;;;;;;;6.05;2.83;;;15.20;99.90;;;;;;5075420;28;20040;-74
2023/08/17 00:15:33;;;;;;;6.55;3.00;;;15.20;99.90;;;;;;5074563;28;20054;-74
2023/08/17 00:17:59;;;;;;;5.55;3.08;;;15.20;99.90;;;;;;5092041;28;20126;-75
2023/08/17 00:20:24;;;;;;;5.60;3.13;;;15.20;99.90;;;;;;5092878;28;20042;-74
2023/08/17 00:22:50;;;;;;;7.07;3.00;;;15.20;99.90;;;;;;5074421;28;20040;-74
2023/08/17 00:25:16;;;;;;;4.70;2.88;;;15.20;99.90;;;;;;5092195;28;20043;-74
2023/08/17 00:27:41;;;;;;;8.25;3.40;;;15.20;99.90;;;;;;5074569;28;20039;-74
2023/08/17 00:30:07;;;;;;;4.78;2.90;;;15.10;99.90;;;;;;5075056;28;20051;-74
2023/08/17 00:32:33;;;;;;;6.97;3.40;;;15.10;99.90;;;;;;5073788;28;20040;-74
2023/08/17 00:34:59;;;;;;;5.88;3.40;;;15.10;99.90;;;;;;5075147;28;20446;-74
2023/08/17 00:37:24;;;;;;;6.38;3.20;;;15.10;99.90;;;;;;5072065;28;20563;-74
2023/08/17 00:39:50;;;;;;;7.55;3.33;;;15.00;99.90;;;;;;5084205;28;20040;-74
2023/08/17 00:42:16;;;;;;;6.68;3.40;;;15.00;99.90;;;;;;5072890;28;20404;-74
2023/08/17 00:44:41;;;;;;;7.18;3.15;;;15.00;99.90;;;;;;5072575;28;20392;-74
2023/08/17 00:47:07;;;;;;;6.15;3.15;;;15.00;99.90;;;;;;5054039;28;20048;-74
2023/08/17 00:49:34;;;;;;;7.00;3.28;;;14.90;99.90;;;;;;5054147;28;20033;-74
2023/08/17 00:52:02;;;;;;;5.05;3.20;;;14.90;99.90;;;;;;5072598;28;20044;-74
2023/08/17 00:54:29;;;;;;;7.32;3.13;;;14.90;99.90;;;;;;5071844;28;20044;-74
2023/08/17 00:56:55;;;;;;;7.47;3.15;;;14.90;99.90;;;;;;5054761;28;20052;-74
2023/08/17 00:59:22;;;;;;;7.00;3.20;;;14.90;99.90;;;;;;5055839;28;20157;-74
2023/08/17 01:01:48;;;;;;;6.50;3.30;;;14.90;99.90;;;;;;5072525;28;20052;-74
2023/08/17 01:04:14;;;;;;;7.72;3.10;;;14.90;99.90;;;;;;5055868;28;20059;-73
2023/08/17 01:06:39;;;;;;;7.95;3.60;;;14.80;99.90;;;;;;5070053;28;20483;-73
2023/08/17 01:09:05;;;;;;;6.65;3.20;;;14.80;99.90;;;;;;5055337;28;20052;-74
2023/08/17 01:12:02;;;;;;;5.55;3.28;;;14.80;99.90;;;;;;5054610;28;20131;-75
2023/08/17 01:14:38;;;;;;;5.85;3.20;;;14.80;99.90;;;;;;5054043;28;20127;-76
2023/08/17 01:17:11;;;;;;;9.68;3.75;;;14.80;99.90;;;;;;5058377;28;20110;-75
2023/08/17 01:19:38;;;;;;;7.80;3.00;;;14.70;99.90;;;;;;5058009;28;20045;-75
2023/08/17 01:22:08;;;;;;;5.05;2.90;;;14.80;99.90;;;;;;5057194;28;20097;-75
2023/08/17 01:24:33;;;;;;;5.45;3.10;;;14.80;99.90;;;;;;5057556;28;20063;-75
2023/08/17 01:26:59;;;;;;;5.65;3.10;;;14.70;99.90;;;;;;5076164;28;20044;-75
2023/08/17 01:29:25;;;;;;;6.05;3.00;;;14.70;99.90;;;;;;5056875;28;20047;-75
2023/08/17 01:32:05;;;;;;;6.93;3.25;;;14.70;99.90;;;;;;5075595;28;20159;-75
2023/08/17 01:34:35;;;;;;;6.47;3.17;;;14.70;99.90;;;;;;5058010;28;20044;-75
2023/08/17 01:37:06;;;;;;;8.60;3.35;;;14.60;99.90;;;;;;5073230;28;20495;-75
2023/08/17 01:39:37;;;;;;;7.97;3.47;;;14.70;99.90;;;;;;5077135;28;20491;-74
2023/08/17 01:42:04;;;;;;;5.90;3.17;;;14.70;99.90;;;;;;5095352;28;20040;-75
2023/08/17 01:44:30;;;;;;;6.38;3.33;;;14.60;99.90;;;;;;5077695;28;20044;-75
2023/08/17 01:46:56;;;;;;;8.43;3.10;;;14.60;99.90;;;;;;5078035;28;20169;-75
2023/08/17 01:49:22;;;;;;;7.93;3.47;;;14.70;99.90;;;;;;5074680;28;20111;-75
2023/08/17 01:51:51;;;;;;;6.82;3.35;;;14.60;99.90;;;;;;5057043;28;20140;-75
2023/08/17 01:54:16;;;;;;;6.75;3.78;;;14.60;99.90;;;;;;5075608;28;20076;-75
2023/08/17 01:56:45;;;;;;;7.25;3.40;;;14.60;99.90;;;;;;5074039;28;20498;-75
2023/08/17 01:59:10;;;;;;;6.63;3.50;;;14.60;99.90;;;;;;5075501;28;20048;-75
2023/08/17 02:01:36;;;;;;;6.25;3.25;;;14.50;99.90;;;;;;5056933;28;20043;-75
2023/08/17 02:04:02;;;;;;;7.15;3.50;;;14.50;99.90;;;;;;5074309;28;20127;-75
2023/08/17 02:06:30;;;;;;;7.72;3.67;;;14.50;99.90;;;;;;5057067;28;20052;-75
2023/08/17 02:08:58;;;;;;;8.20;3.67;;;14.50;99.90;;;;;;5075202;28;20055;-75
2023/08/17 02:11:24;;;;;;;9.00;3.70;;;14.50;99.90;;;;;;5074407;28;20045;-74
2023/08/17 02:13:50;;;;;;;9.02;3.88;;;14.50;99.90;;;;;;5057042;28;20064;-75
2023/08/17 02:16:15;;;;;;;7.68;4.13;;;14.50;99.90;;;;;;5064170;28;20044;-75
2023/08/17 02:18:41;;;;;;;10.32;4.13;;;14.50;99.90;;;;;;5075608;28;20047;-75
2023/08/17 02:21:10;;;;;;;11.00;4.45;;;14.50;99.90;;;;;;5076815;28;20062;-75
2023/08/17 02:23:35;;;;;;;9.85;4.90;;;14.40;99.90;;;;;;5094360;28;20368;-75
2023/08/17 02:26:01;;;;;;;9.35;4.75;;;14.40;99.90;;;;;;5093945;28;20089;-75
2023/08/17 02:28:27;;;;;;;7.30;4.70;;;14.40;99.90;;;;;;5076467;28;20044;-74
2023/08/17 02:30:56;;;;;;;9.30;4.70;;;14.40;99.90;;;;;;5094614;28;20119;-75
2023/08/17 02:33:22;;;;;;;8.82;4.10;;;14.40;99.90;;;;;;5076164;28;20144;-75
2023/08/17 02:35:49;;;;;;;8.63;4.28;;;14.50;99.90;;;;;;5094353;28;20040;-75
2023/08/17 02:38:15;;;;;;;8.27;4.03;;;14.40;99.90;;;;;;5076022;28;20442;-75
2023/08/17 02:40:41;;;;;;;5.88;3.90;;;14.50;99.90;;;;;;5075667;28;20048;-75
2023/08/17 02:43:06;;;;;;;8.27;4.35;;;14.50;99.90;;;;;;5074682;28;20075;-75
2023/08/17 02:45:34;;;;;;;8.95;4.53;;;14.50;99.90;;;;;;5073373;28;20045;-75
2023/08/17 02:47:59;;;;;;;7.97;4.10;;;14.50;99.90;;;;;;5075559;28;20044;-75
2023/08/17 02:50:25;;;;;;;8.57;4.35;;;14.50;99.90;;;;;;5074193;28;20044;-75
2023/08/17 02:52:51;;;;;;;7.10;4.70;;;14.50;99.90;;;;;;5073309;28;20084;-75
2023/08/17 02:55:17;;;;;;;8.23;4.43;;;14.50;99.90;;;;;;5056269;28;20130;-75
2023/08/17 02:57:42;;;;;;;8.02;4.22;;;14.50;99.90;;;;;;5056079;28;20056;-75
2023/08/17 03:00:08;;;;;;;8.23;4.65;;;14.50;99.90;;;;;;5055256;28;20396;-75
2023/08/17 03:02:34;;;;;;;8.00;4.60;;;14.50;99.90;;;;;;5054513;28;20126;-75
2023/08/17 03:05:00;;;;;;;8.93;4.63;;;14.60;99.90;;;;;;5054052;28;20129;-74
2023/08/17 03:07:26;;;;;;;6.90;4.18;;;14.60;99.90;;;;;;5054388;28;20484;-76
2023/08/17 03:09:52;;;;;;;9.88;4.30;;;14.60;99.90;;;;;;5070617;28;20096;-76
2023/08/17 03:12:17;;;;;;;8.90;4.43;;;14.60;99.90;;;;;;5093775;28;20047;-76
2023/08/17 03:14:43;;;;;;;8.52;4.75;;;14.60;99.90;;;;;;5074646;28;20056;-74
2023/08/17 03:17:09;;;;;;;9.80;5.10;;;14.60;99.90;;;;;;5093964;28;20035;-75
2023/08/17 03:19:34;;;;;;;8.70;4.53;;;14.70;99.90;;;;;;5081556;28;20522;-75
2023/08/17 03:22:00;;;;;;;9.18;4.78;;;14.70;99.90;;;;;;5072781;28;20432;-75
2023/08/17 03:24:26;;;;;;;7.95;4.90;;;14.70;99.90;;;;;;5073555;28;20068;-74
2023/08/17 03:26:51;;;;;;;8.35;5.25;;;14.70;99.90;;;;;;5054936;28;20118;-75
2023/08/17 03:29:17;;;;;;;8.55;5.03;;;14.70;99.90;;;;;;5054827;28;20391;-75
2023/08/17 03:31:43;;;;;;;10.82;5.35;;;14.70;99.90;;;;;;5054646;28;20050;-75
2023/08/17 03:34:08;;;;;;;8.88;5.25;;;14.70;99.90;;;;;;5073436;28;20053;-75
2023/08/17 03:36:34;;;;;;;10.15;5.05;;;14.70;99.90;;;;;;5053847;28;20045;-76
2023/08/17 03:39:00;;;;;;;9.15;4.70;;;14.70;99.90;;;;;;5055481;28;20131;-76
2023/08/17 03:41:25;;;;;;;8.15;4.50;;;14.60;99.90;;;;;;5055437;28;20052;-76
2023/08/17 03:43:51;;;;;;;6.32;4.40;;;14.60;99.90;;;;;;5054510;28;20862;-76
2023/08/17 03:46:16;;;;;;;7.10;3.97;;;14.60;99.90;;;;;;5064543;28;20085;-76
2023/08/17 03:48:42;;;;;;;8.90;4.20;;;14.50;99.90;;;;;;5074459;28;20036;-76
2023/08/17 03:51:08;;;;;;;9.02;4.40;;;14.50;99.90;;;;;;5075348;28;20047;-76
2023/08/17 03:53:33;;;;;;;9.00;4.30;;;14.50;99.90;;;;;;5093168;28;20044;-76
2023/08/17 03:55:59;;;;;;;8.98;4.35;;;14.50;99.90;;;;;;5067925;28;20547;-76
2023/08/17 03:58:33;;;;;;;7.45;4.05;;;14.50;99.90;;;;;;5073237;28;20056;-76
2023/08/17 04:00:58;;;;;;;8.25;4.00;;;14.40;99.90;;;;;;5073013;28;20051;-76
2023/08/17 04:03:24;;;;;;;7.15;4.32;;;14.40;99.90;;;;;;5054025;28;20408;-76
2023/08/17 04:05:50;;;;;;;9.02;4.45;;;14.40;99.90;;;;;;5054422;28;20053;-75
2023/08/17 04:08:15;;;;;;;8.38;4.10;;;14.40;99.90;;;;;;5072718;28;20052;-75
2023/08/17 04:10:41;;;;;;;8.80;4.40;;;14.30;99.90;;;;;;5071792;28;20050;-75
2023/08/17 04:13:07;;;;;;;8.48;4.25;;;14.30;99.90;;;;;;5072724;28;20492;-76
2023/08/17 04:15:32;;;;;;;8.27;4.63;;;14.30;99.90;;;;;;5072271;28;20072;-76
2023/08/17 04:17:58;;;;;;;7.20;4.40;;;14.40;99.90;;;;;;5054058;28;20370;-76
2023/08/17 04:20:25;;;;;;;6.63;3.92;;;14.40;99.90;;;;;;5055446;28;20127;-76
2023/08/17 04:22:50;;;;;;;9.02;3.90;;;14.40;99.90;;;;;;5075083;28;20055;-75
2023/08/17 04:25:19;;;;;;;6.30;4.00;;;14.30;99.90;;;;;;5055732;28;20451;-76
2023/08/17 04:27:45;;;;;;;7.55;3.90;;;14.30;99.90;;;;;;5054618;28;20044;-76
2023/08/17 04:30:11;;;;;;;7.03;3.67;;;14.30;99.90;;;;;;5073238;28;20081;-75
2023/08/17 04:32:37;;;;;;;7.78;3.78;;;14.30;99.90;;;;;;5053707;28;20047;-75
2023/08/17 04:35:03;;;;;;;9.38;4.10;;;14.30;99.90;;;;;;5072953;28;20052;-76
2023/08/17 04:37:29;;;;;;;6.28;3.92;;;14.30;99.90;;;;;;5072532;28;20082;-76
2023/08/17 04:39:54;;;;;;;6.22;3.53;;;14.30;99.90;;;;;;5071596;28;20078;-76
2023/08/17 04:42:20;;;;;;;5.88;3.38;;;14.30;99.90;;;;;;5054655;28;20051;-75
2023/08/17 04:44:46;;;;;;;4.60;3.10;;;14.30;99.90;;;;;;5054324;28;20044;-76
2023/08/17 04:47:11;;;;;;;5.18;3.40;;;14.30;99.90;;;;;;5054086;28;20059;-76
2023/08/17 04:49:40;;;;;;;10.85;3.67;;;14.30;99.90;;;;;;5058331;28;20036;-75
2023/08/17 04:52:06;;;;;;;6.65;3.20;;;14.70;99.90;;;;;;5075822;28;20507;-75
2023/08/17 04:54:35;;;;;;;7.50;3.30;;;14.30;99.90;;;;;;5057991;28;20052;-76
2023/08/17 04:57:00;;;;;;;5.97;3.17;;;14.30;99.90;;;;;;5071599;28;20056;-75
2023/08/17 04:59:26;;;;;;;5.70;2.95;;;14.30;99.90;;;;;;5095332;28;20365;-75
2023/08/17 05:01:54;;;;;;;9.27;3.30;;;14.40;99.90;;;;;;5096517;28;20361;-76
2023/08/17 05:04:19;;;;;;;8.15;3.13;;;14.40;99.90;;;;;;5078253;28;20056;-76
2023/08/17 05:06:45;;;;;;;7.70;3.13;;;14.40;99.90;;;;;;5064860;28;20052;-76
2023/08/17 05:09:11;;;;;;;3.83;2.53;;;14.40;99.90;;;;;;5076232;28;20481;-75
2023/08/17 05:11:36;;;;;;;4.63;2.95;;;14.40;99.90;;;;;;5057647;28;20044;-75
2023/08/17 05:14:02;;;;;;;6.60;3.40;;;14.40;99.90;;;;;;5057665;28;20107;-75
2023/08/17 05:16:28;;;;;;;6.68;3.28;;;14.40;99.90;;;;;;5076021;28;20044;-75
2023/08/17 05:18:54;;;;;;;6.95;3.10;;;14.50;99.90;;;;;;5058002;28;20048;-75
2023/08/17 05:21:19;;;;;;;6.47;3.15;;;14.60;99.90;;;;;;5057266;28;20484;-76
2023/08/17 05:23:45;;;;;;;7.45;3.08;;;14.70;99.90;;;;;;5075509;28;20052;-75
2023/08/17 05:26:11;;;;;;;5.80;3.08;;;14.70;99.90;;;;;;5075912;28;20040;-75
2023/08/17 05:28:36;;;;;;;6.53;2.70;;;14.80;99.90;;;;;;5056742;28;20049;-75
2023/08/17 05:31:06;;;;;;;6.25;2.83;;;14.80;99.90;;;;;;5075362;28;20044;-75
2023/08/17 05:33:34;;;;;;;4.25;2.90;;;14.80;99.90;;;;;;5063655;28;20067;-75
2023/08/17 05:36:00;;;;;;;7.10;2.83;;;14.80;99.90;;;;;;5071470;28;20051;-76
2023/08/17 05:38:26;;;;;;;5.20;2.60;;;14.80;99.90;;;;;;5065962;28;20049;-76
2023/08/17 05:40:56;;;;;;;7.28;2.90;;;14.80;99.90;;;;;;5057371;28;20186;-76
2023/08/17 05:43:22;;;;;;;5.18;2.50;;;14.90;99.90;;;;;;5056812;28;20044;-75
2023/08/17 05:45:48;;;;;;;5.50;2.35;;;15.00;99.90;;;;;;5075240;28;20045;-76
2023/08/17 05:48:13;;;;;;;6.13;2.45;;;15.00;99.90;;;;;;5056756;28;20048;-76
2023/08/17 05:50:42;;;;;;;4.30;2.40;;;15.00;99.90;;;;;;5058143;28;20052;-75
2023/08/17 05:53:08;;;;;;;4.70;2.42;;;15.10;99.90;;;;;;5075385;28;20041;-75
2023/08/17 05:55:34;;;;;;;5.00;2.70;;;15.10;99.90;;;;;;5056447;28;20052;-75
2023/08/17 05:57:59;;;;;;;7.45;2.15;;;15.20;99.90;;;;;;5074595;28;20480;-75
2023/08/17 06:00:25;;;;;;;6.10;2.35;;;15.20;99.90;;;;;;5057194;28;20102;-76
2023/08/17 06:02:51;;;;;;;8.70;2.13;;;15.30;99.90;;;;;;5073973;28;20417;-76
2023/08/17 06:05:25;;;;;;;5.95;2.13;;;15.30;99.90;;;;;;5057124;28;20106;-76
2023/08/17 06:07:51;;;;;;;6.05;2.03;;;15.40;99.90;;;;;;5075531;28;20147;-75
2023/08/17 06:10:17;;;;;;;3.40;2.15;;;15.50;99.90;;;;;;5093660;28;20128;-76
2023/08/17 06:12:42;;;;;;;6.50;1.90;;;15.60;99.90;;;;;;5076887;28;20042;-76
2023/08/17 06:15:08;;;;;;;5.13;1.80;;;15.70;99.90;;;;;;5076679;28;20093;-76
2023/08/17 06:17:34;;;;;;;7.43;1.80;;;15.80;99.90;;;;;;5094084;28;20043;-76
2023/08/17 06:20:00;;;;;;;5.65;2.20;;;15.90;99.90;;;;;;5095006;28;20547;-77
2023/08/17 06:22:26;;;;;;;7.72;2.13;;;15.90;99.90;;;;;;5077052;28;20047;-74
2023/08/17 06:24:52;;;;;;;4.68;1.70;;;16.00;99.90;;;;;;5093151;28;20048;-74
2023/08/17 06:27:18;;;;;;;7.00;1.85;;;16.10;99.90;;;;;;5095165;28;20051;-74
2023/08/17 06:29:44;;;;;;;5.80;1.98;;;16.10;99.90;;;;;;5094666;28;20073;-74
2023/08/17 06:32:09;;;;;;;6.55;2.08;;;16.20;99.90;;;;;;5094161;28;20478;-74
2023/08/17 06:34:35;;;;;;;4.15;2.00;;;16.30;99.90;;;;;;5072325;28;20085;-74
2023/08/17 06:37:03;;;;;;;5.40;1.83;;;16.40;99.90;;;;;;5074548;28;20098;-74
2023/08/17 06:39:29;;;;;;;6.07;1.90;;;16.60;99.90;;;;;;5073163;28;20111;-73
2023/08/17 06:41:55;;;;;;;2.78;1.60;;;16.30;99.90;;;;;;5056063;28;20545;-75
2023/08/17 06:44:21;;;;;;;4.28;2.10;;;16.80;99.90;;;;;;5056184;28;20131;-75
2023/08/17 06:46:47;;;;;;;4.30;1.80;;;16.90;99.90;;;;;;5055177;28;20121;-75
2023/08/17 06:49:12;;;;;;;3.53;1.55;;;16.90;99.90;;;;;;5056191;28;20048;-75
2023/08/17 06:51:38;;;;;;;4.32;1.50;;;17.00;99.90;;;;;;5055541;28;20086;-75
2023/08/17 06:54:07;;;;;;;4.82;1.50;;;17.00;99.90;;;;;;5056419;28;20123;-75
2023/08/17 06:56:33;;;;;;;4.63;1.50;;;17.10;99.90;;;;;;5056160;28;20041;-75
2023/08/17 06:59:01;;;;;;;3.50;1.50;;;17.20;99.90;;;;;;5073046;28;20044;-75
2023/08/17 07:01:26;;;;;;;3.33;1.60;;;17.20;99.90;;;;;;5056039;28;20055;-75
2023/08/17 07:03:52;;;;;;;3.83;1.40;;;17.30;99.90;;;;;;5055602;28;20048;-75
2023/08/17 07:06:18;;;;;;;3.13;1.48;;;17.40;99.90;;;;;;5073823;28;20127;-75
2023/08/17 07:08:43;;;;;;;4.55;1.50;;;17.60;99.90;;;;;;5073879;28;20036;-75
2023/08/17 07:11:09;;;;;;;3.33;1.55;;;17.70;99.90;;;;;;5072763;28;20043;-76
2023/08/17 07:13:35;;;;;;;3.90;1.55;;;17.70;99.90;;;;;;5054943;28;20040;-75
2023/08/17 07:16:00;;;;;;;4.30;1.42;;;17.80;99.90;;;;;;5055755;28;20140;-74
2023/08/17 07:18:26;;;;;;;4.30;1.60;;;17.90;99.90;;;;;;5055904;28;20051;-75
2023/08/17 07:20:54;;;;;;;4.43;1.27;;;18.00;99.90;;;;;;5072273;28;20036;-76
2023/08/17 07:23:20;;;;;;;4.97;1.38;;;18.10;99.90;;;;;;5055637;28;20106;-76
2023/08/17 07:25:45;;;;;;;4.10;1.20;;;18.20;99.90;;;;;;5073502;28;20037;-76
2023/08/17 07:28:11;;;;;;;4.80;1.20;;;18.50;99.90;;;;;;5054920;28;20427;-76
2023/08/17 07:30:36;;;;;;;3.83;1.30;;;18.70;99.90;;;;;;5073896;28;20402;-74
2023/08/17 07:33:02;;;;;;;4.45;1.52;;;18.90;99.90;;;;;;5078924;28;20054;-74
2023/08/17 07:35:28;;;;;;;4.55;1.40;;;19.10;99.90;;;;;;5091185;28;20040;-74
2023/08/17 07:37:54;;;;;;;3.05;1.27;;;19.20;99.90;;;;;;5093552;28;20040;-74
2023/08/17 07:40:19;;;;;;;4.40;1.40;;;19.10;99.90;;;;;;5073990;28;20040;-73
2023/08/17 07:42:46;;;;;;;4.75;1.48;;;19.20;99.90;;;;;;5088335;28;20123;-73
2023/08/17 07:45:12;;;;;;;2.85;1.10;;;19.20;99.90;;;;;;5075391;28;20048;-73
2023/08/17 07:47:38;;;;;;;5.35;1.13;;;19.90;99.90;;;;;;5069987;28;20071;-73
2023/08/17 07:50:05;;;;;;;4.05;1.20;;;21.00;99.90;;;;;;5072907;28;20123;-74
2023/08/17 07:52:30;;;;;;;4.75;1.05;;;22.20;99.90;;;;;;5074408;28;20045;-74
2023/08/17 07:54:56;;;;;;;4.15;1.10;;;22.30;99.90;;;;;;5056638;28;20059;-74
2023/08/17 07:57:22;;;;;;;4.60;1.73;;;22.50;99.90;;;;;;5091020;28;20035;-73
2023/08/17 07:59:48;;;;;;;2.20;1.10;;;22.50;99.90;;;;;;5092687;28;20467;-73
2023/08/17 08:02:13;;;;;;;3.30;1.13;;;23.10;99.90;;;;;;5091458;28;20051;-74
2023/08/17 08:04:39;;;;;;;2.60;1.00;;;24.10;99.90;;;;;;5092484;28;20052;-74
2023/08/17 08:07:06;;;;;;;4.78;1.10;;;24.90;99.90;;;;;;5074756;28;20527;-74
2023/08/17 08:09:31;;;;;;;2.47;0.88;;;25.40;99.90;;;;;;5074179;28;20047;-75
2023/08/17 08:11:57;;;;;;;2.30;1.00;;;25.10;99.90;;;;;;5073667;28;20397;-75
2023/08/17 08:14:23;;;;;;;3.42;1.00;;;24.80;99.50;;;;;;5083032;28;20032;-74
2023/08/17 08:16:48;;;;;;;3.25;0.90;;;24.50;99.70;;;;;;5073582;28;20469;-75
2023/08/17 08:19:14;;;;;;;2.05;0.80;;;24.50;99.90;;;;;;5054470;28;20517;-75
2023/08/17 08:21:40;;;;;;;2.53;0.90;;;25.00;99.90;;;;;;5054112;28;20056;-75
2023/08/17 08:24:06;;;;;;;3.17;1.17;;;25.60;98.70;;;;;;5053746;28;20080;-75
2023/08/17 08:26:31;;;;;;;2.47;0.65;;;26.30;97.90;;;;;;5073500;28;20131;-75
2023/08/17 08:28:57;;;;;;;3.97;0.90;;;26.30;98.20;;;;;;5054865;28;20040;-75
2023/08/17 08:31:22;;;;;;;3.78;0.90;;;25.80;98.00;;;;;;5072057;28;20044;-75
2023/08/17 08:33:48;;;;;;;4.68;1.17;;;26.00;98.30;;;;;;5054083;28;20128;-76
2023/08/17 08:36:14;;;;;;;3.17;1.00;;;26.60;97.70;;;;;;5075003;28;20090;-75
2023/08/17 08:38:39;;;;;;;3.22;0.90;;;27.50;97.00;;;;;;5071697;28;20044;-77
2023/08/17 08:41:08;;;;;;;6.65;1.00;;;28.10;96.00;;;;;;5092635;28;20083;-77
2023/08/17 08:43:34;;;;;;;3.15;1.00;;;28.30;95.60;;;;;;5074329;28;20044;-75
2023/08/17 08:46:00;;;;;;;4.72;0.90;;;28.70;95.30;;;;;;5072434;28;20519;-75
2023/08/17 08:48:27;;;;;;;2.75;1.08;;;28.60;95.40;;;;;;5071996;28;20086;-75
2023/08/17 08:50:55;;;;;;;4.45;1.02;;;27.60;94.80;;;;;;5054035;28;20044;-74
2023/08/17 08:53:32;;;;;;;6.43;1.08;;;27.10;95.80;;;;;;5071596;28;20464;-75
2023/08/17 08:56:00;;;;;;;2.15;1.10;;;26.00;96.30;;;;;;5085766;28;20044;-74
2023/08/17 08:58:26;;;;;;;3.35;0.98;;;25.30;97.20;;;;;;5072556;28;20052;-75
2023/08/17 09:00:52;;;;;;;3.60;1.10;;;24.60;98.70;;;;;;5073874;28;20130;-76
2023/08/17 09:03:20;;;;;;;3.08;1.30;;;24.60;99.40;;;;;;5092055;28;20452;-78
2023/08/17 09:05:49;;;;;;;4.60;1.00;;;24.50;99.50;;;;;;5073405;28;20066;-74
2023/08/17 09:08:21;;;;;;;4.57;1.10;;;24.50;99.20;;;;;;5092612;28;20071;-75
2023/08/17 09:10:47;;;;;;;3.65;1.20;;;24.20;99.80;;;;;;5074189;28;20059;-78
2023/08/17 09:13:13;;;;;;;3.28;1.00;;;24.50;99.90;;;;;;5076577;28;20484;-76
2023/08/17 09:15:39;;;;;;;2.15;0.82;;;25.20;99.00;;;;;;5053784;28;20492;-73
2023/08/17 09:18:07;;;;;;;2.42;1.00;;;26.00;98.10;;;;;;5072220;28;20047;-76
2023/08/17 09:20:44;;;;;;;2.97;1.13;;;26.30;97.20;;;;;;5070504;28;20044;-73
2023/08/17 09:23:13;;;;;;;2.30;0.63;;;27.10;95.90;;;;;;5053836;28;20472;-83
2023/08/17 09:25:40;;;;;;;1.98;0.90;;;27.40;95.90;;;;;;5071936;28;20080;-80
2023/08/17 09:28:14;;;;;;;3.33;1.00;;;27.60;95.00;;;;;;5054310;28;20057;-79
2023/08/17 09:30:53;;;;;;;2.78;1.00;;;28.20;96.10;;;;;;5053818;28;20167;-77
2023/08/17 09:33:27;;;;;;;4.80;1.15;;;28.90;94.80;;;;;;5053670;28;20040;-77
2023/08/17 09:35:54;;;;;;;3.47;1.00;;;28.40;93.80;;;;;;5075400;28;20131;-77
2023/08/17 09:38:20;;;;;;;2.50;1.02;;;28.10;94.10;;;;;;5062058;28;20519;-74
2023/08/17 09:40:47;;;;;;;3.40;0.90;;;28.40;94.30;;;;;;5076257;28;20040;-76
2023/08/17 09:43:14;;;;;;;3.17;1.10;;;28.70;94.10;;;;;;5057791;28;20116;-77
2023/08/17 09:45:40;;;;;;;3.55;1.13;;;28.80;93.60;;;;;;5057476;28;20106;-77
2023/08/17 09:48:08;;;;;;;2.65;0.90;;;28.50;93.40;;;;;;5057134;28;20049;-77
2023/08/17 09:50:35;;;;;;;3.83;1.30;;;28.20;93.50;;;;;;5057197;28;20048;-75
2023/08/17 09:53:02;;;;;;;2.88;0.82;;;27.70;93.70;;;;;;5057260;28;20064;-76
2023/08/17 09:55:32;;;;;;;4.13;0.98;;;27.60;94.80;;;;;;5056482;28;20056;-75
2023/08/17 09:57:58;;;;;;;3.85;1.02;;;27.90;94.30;;;;;;5077151;28;20052;-75
2023/08/17 10:00:25;;;;;;;7.25;1.10;;;27.80;94.20;;;;;;5073843;28;20045;-77
2023/08/17 10:02:52;;;;;;;2.38;0.90;;;27.70;94.30;;;;;;5055247;28;20488;-75
2023/08/17 10:05:23;;;;;;;3.17;1.00;;;27.80;93.90;;;;;;5055757;28;20049;-78
2023/08/17 10:07:54;;;;;;;1.65;0.85;;;28.20;94.10;;;;;;5052617;28;20093;-73
2023/08/17 10:10:26;;;;;;;4.60;1.00;;;28.60;94.30;;;;;;5055474;28;20048;-74
2023/08/17 10:12:54;;;;;;;4.07;0.90;;;28.70;94.50;;;;;;5074252;28;20045;-77
2023/08/17 10:15:24;;;;;;;2.70;0.80;;;28.60;93.40;;;;;;5057580;28;20044;-77
2023/08/17 10:17:58;;;;;;;3.53;0.90;;;28.50;94.30;;;;;;5073716;28;20499;-76
2023/08/17 10:20:29;;;;;;;4.47;1.00;;;28.70;93.60;;;;;;5091901;28;20120;-74
2023/08/17 10:23:05;;;;;;;2.92;0.93;;;28.80;93.30;;;;;;5075788;28;20048;-78
2023/08/17 10:25:32;;;;;;;3.22;1.00;;;28.50;93.30;;;;;;5075847;28;20105;-75
2023/08/17 10:28:00;;;;;;;2.58;1.05;;;28.30;93.30;;;;;;5056705;28;20051;-79
2023/08/17 10:30:26;;;;;;;6.10;1.17;;;27.80;93.80;;;;;;5055750;28;20037;-80
2023/08/17 10:32:52;;;;;;;2.97;1.05;;;27.40;94.40;;;;;;5064510;28;20040;-75
2023/08/17 10:35:18;;;;;;;2.75;1.10;;;27.10;94.70;;;;;;5076492;28;20055;-73
2023/08/17 10:37:44;;;;;;;3.90;1.20;;;27.40;95.60;;;;;;5093406;28;20040;-75
2023/08/17 10:40:10;;;;;;;3.78;1.10;;;27.50;94.50;;;;;;5094735;28;20051;-75
2023/08/17 10:42:36;;;;;;;3.42;1.10;;;27.50;94.70;;;;;;5076209;28;20513;-73
2023/08/17 10:45:25;;;;;;;3.55;1.10;;;27.80;95.40;;;;;;5086836;28;20150;-74
2023/08/17 10:48:05;;;;;;;3.92;1.13;;;28.20;94.80;;;;;;5057319;28;20052;-74
2023/08/17 10:50:32;;;;;;;4.22;1.92;;;28.30;94.20;;;;;;5092719;28;20052;-78
2023/08/17 10:53:04;;;;;;;4.32;1.30;;;28.00;93.80;;;;;;5086843;28;20032;-73
2023/08/17 10:55:41;;;;;;;3.08;1.30;;;27.60;94.30;;;;;;5068393;28;20459;-75
2023/08/17 10:58:13;;;;;;;4.10;1.27;;;27.10;95.00;;;;;;5093839;28;20085;-75
2023/08/17 11:00:39;;;;;;;3.42;1.05;;;26.90;95.30;;;;;;5075767;28;20483;-76
2023/08/17 11:03:10;;;;;;;3.88;1.38;;;26.70;95.20;;;;;;5075225;28;20089;-75
2023/08/17 11:05:46;;;;;;;4.07;1.60;;;26.10;95.50;;;;;;5074779;28;20083;-78
2023/08/17 11:08:31;;;;;;;3.30;1.40;;;26.00;96.50;;;;;;5073602;28;20055;-79
2023/08/17 11:11:11;;;;;;;6.32;1.60;;;25.80;97.20;;;;;;5069738;28;20361;-81
2023/08/17 11:13:42;;;;;;;6.15;1.52;;;25.60;96.60;;;;;;5074135;28;20055;-74
2023/08/17 11:16:09;;;;;;;5.53;1.20;;;25.30;96.90;;;;;;5066474;28;20040;-73
2023/08/17 11:18:34;;;;;;;3.47;1.50;;;25.10;96.60;;;;;;5077727;28;20040;-73
2023/08/17 11:21:03;;;;;;;3.60;1.20;;;25.00;97.20;;;;;;5081999;28;20052;-76
2023/08/17 11:23:29;;;;;;;4.55;1.40;;;25.10;97.10;;;;;;5063902;28;20070;-75
2023/08/17 11:25:55;;;;;;;5.93;1.33;;;24.90;97.30;;;;;;5074113;28;20032;-74
2023/08/17 11:28:22;;;;;;;5.43;1.20;;;24.90;97.50;;;;;;5076927;28;20094;-75
2023/08/17 11:30:58;;;;;;;10.43;1.55;;;24.70;97.90;;;;;;5053417;28;20044;-78
2023/08/17 11:33:26;;;;;;;4.00;1.50;;;24.70;98.10;;;;;;5070705;28;20040;-75
2023/08/17 11:35:54;;;;;;;7.20;1.65;;;24.50;97.90;;;;;;5053193;28;20789;-74
2023/08/17 11:38:19;;;;;;;5.90;1.50;;;24.20;98.10;;;;;;5053431;28;20135;-75
2023/08/17 11:40:45;;;;;;;5.15;1.58;;;24.20;98.30;;;;;;5052107;28;20147;-74
2023/08/17 11:43:11;;;;;;;4.63;1.30;;;24.10;99.00;;;;;;5059323;28;20040;-75
2023/08/17 11:45:39;;;;;;;4.30;1.33;;;24.20;98.90;;;;;;5091815;28;20052;-73
2023/08/17 11:48:05;;;;;;;9.32;1.60;;;24.10;98.60;;;;;;5074323;28;20454;-73
2023/08/17 11:50:31;;;;;;;3.40;1.40;;;24.00;98.80;;;;;;5049347;28;20078;-73
2023/08/17 11:53:00;;;;;;;5.22;1.80;;;24.00;99.20;;;;;;5071617;28;20097;-73
2023/08/17 11:55:26;;;;;;;4.22;2.00;;;23.90;98.80;;;;;;5072292;28;20048;-73
2023/08/17 11:57:52;;;;;;;5.47;2.13;;;23.90;99.00;;;;;;5053666;28;20097;-75
2023/08/17 12:00:20;;;;;;;5.40;1.75;;;23.70;99.40;;;;;;5075996;28;20040;-74
2023/08/17 12:02:50;;;;;;;6.28;1.80;;;23.50;99.80;;;;;;5055812;28;20184;-73
2023/08/17 12:05:23;;;;;;;4.97;1.60;;;23.40;99.90;;;;;;5072487;28;20055;-73
2023/08/17 12:07:49;;;;;;;6.22;1.85;;;23.30;99.80;;;;;;5072533;28;20068;-76
2023/08/17 12:10:16;;;;;;;5.05;1.35;;;23.30;99.90;;;;;;5054326;28;20370;-74
2023/08/17 12:12:41;;;;;;;4.68;1.50;;;23.30;99.90;;;;;;5054369;28;20048;-73
2023/08/17 12:15:10;;;;;;;5.20;1.60;;;23.20;99.90;;;;;;5082789;28;20047;-76
2023/08/17 12:17:36;;;;;;;5.38;1.55;;;23.20;99.90;;;;;;5074097;28;20437;-75
2023/08/17 12:20:02;;;;;;;5.50;1.52;;;23.20;99.90;;;;;;5076422;28;20048;-75
2023/08/17 12:22:28;;;;;;;4.40;1.50;;;23.30;99.90;;;;;;5074183;28;20372;-80
2023/08/17 12:24:54;;;;;;;4.25;1.73;;;23.40;99.90;;;;;;5081595;28;20051;-74
2023/08/17 12:27:22;;;;;;;6.10;1.60;;;23.50;99.90;;;;;;5054568;28;20052;-75
2023/08/17 12:29:50;;;;;;;5.25;1.42;;;23.50;99.90;;;;;;5071727;28;20040;-79
2023/08/17 12:32:20;;;;;;;4.65;1.48;;;23.60;99.80;;;;;;5054696;28;20488;-75
2023/08/17 12:34:46;;;;;;;6.43;1.60;;;23.30;99.90;;;;;;5072130;28;20045;-76
2023/08/17 12:37:18;;;;;;;3.95;1.60;;;23.40;99.90;;;;;;5071681;28;20484;-79
2023/08/17 12:39:43;;;;;;;5.35;1.60;;;23.70;99.90;;;;;;5050970;28;20079;-88
2023/08/17 12:42:09;;;;;;;3.22;1.60;;;24.10;99.90;;;;;;5052563;28;20080;-78
2023/08/17 12:44:35;;;;;;;5.68;1.90;;;24.20;99.70;;;;;;5058205;28;20098;-79